sensor_id;sensor_type;location;lat;lon;timestamp;pressure;altitude;pressure_sealevel;temperature;humidity
85163;BME280;75527;48.526;9.158;2024-02-26T00:01:36;95333.88;;;6.81;54.54
85163;BME280;75527;48.526;9.158;2024-02-26T00:04:01;95337.09;;;6.77;54.69
85163;BME280;75527;48.526;9.158;2024-02-26T00:06:28;95364.56;;;6.85;53.46
85163;BME280;75527;48.526;9.158;2024-02-26T00:08:53;95370.38;;;6.82;53.95
85163;BME280;75527;48.526;9.158;2024-02-26T00:11:18;95353.34;;;6.79;53.93
85163;BME280;75527;48.526;9.158;2024-02-26T00:13:43;95357.59;;;6.75;53.82
85163;BME280;75527;48.526;9.158;2024-02-26T00:16:09;95358.75;;;6.88;54.37
85163;BME280;75527;48.526;9.158;2024-02-26T00:18:34;95367.53;;;6.78;55.60
85163;BME280;75527;48.526;9.158;2024-02-26T00:20:59;95357.66;;;6.70;56.19
85163;BME280;75527;48.526;9.158;2024-02-26T00:23:25;95358.44;;;6.71;54.24
85163;BME280;75527;48.526;9.158;2024-02-26T00:25:52;95341.41;;;6.68;53.35
85163;BME280;75527;48.526;9.158;2024-02-26T00:28:17;95347.09;;;6.75;53.08
85163;BME280;75527;48.526;9.158;2024-02-26T00:30:43;95351.00;;;6.78;53.68
85163;BME280;75527;48.526;9.158;2024-02-26T00:33:08;95339.78;;;6.72;52.53
85163;BME280;75527;48.526;9.158;2024-02-26T00:35:33;95320.47;;;6.63;52.84
85163;BME280;75527;48.526;9.158;2024-02-26T00:37:58;95339.44;;;6.79;52.82
85163;BME280;75527;48.526;9.158;2024-02-26T00:40:25;95341.41;;;6.87;52.07
85163;BME280;75527;48.526;9.158;2024-02-26T00:42:51;95339.69;;;6.96;50.08
85163;BME280;75527;48.526;9.158;2024-02-26T00:45:16;95338.78;;;7.06;49.93
85163;BME280;75527;48.526;9.158;2024-02-26T00:47:42;95340.69;;;7.00;49.45
85163;BME280;75527;48.526;9.158;2024-02-26T00:50:08;95345.09;;;7.05;50.23
85163;BME280;75527;48.526;9.158;2024-02-26T00:52:36;95348.22;;;7.07;49.74
85163;BME280;75527;48.526;9.158;2024-02-26T00:55:02;95344.53;;;7.08;50.35
85163;BME280;75527;48.526;9.158;2024-02-26T00:57:28;95345.56;;;7.07;49.20
85163;BME280;75527;48.526;9.158;2024-02-26T00:59:53;95346.09;;;7.09;48.71
85163;BME280;75527;48.526;9.158;2024-02-26T01:02:20;95339.75;;;7.10;48.99
85163;BME280;75527;48.526;9.158;2024-02-26T01:04:47;95343.94;;;7.11;49.14
85163;BME280;75527;48.526;9.158;2024-02-26T01:07:12;95339.00;;;7.10;49.42
85163;BME280;75527;48.526;9.158;2024-02-26T01:09:38;95339.75;;;7.10;48.83
85163;BME280;75527;48.526;9.158;2024-02-26T01:12:03;95348.91;;;7.13;48.27
85163;BME280;75527;48.526;9.158;2024-02-26T01:14:28;95355.59;;;7.05;48.70
85163;BME280;75527;48.526;9.158;2024-02-26T01:16:54;95336.59;;;6.94;49.41
85163;BME280;75527;48.526;9.158;2024-02-26T01:19:19;95355.91;;;7.03;49.82
85163;BME280;75527;48.526;9.158;2024-02-26T01:21:44;95343.03;;;7.02;49.75
85163;BME280;75527;48.526;9.158;2024-02-26T01:24:10;95351.19;;;7.00;50.29
85163;BME280;75527;48.526;9.158;2024-02-26T01:26:35;95348.50;;;7.05;49.88
85163;BME280;75527;48.526;9.158;2024-02-26T01:29:01;95333.25;;;6.89;49.93
85163;BME280;75527;48.526;9.158;2024-02-26T01:31:26;95357.69;;;6.89;50.47
85163;BME280;75527;48.526;9.158;2024-02-26T01:33:51;95373.59;;;6.98;51.52
85163;BME280;75527;48.526;9.158;2024-02-26T01:36:17;95363.72;;;6.90;52.59
85163;BME280;75527;48.526;9.158;2024-02-26T01:38:43;95350.72;;;6.79;53.24
85163;BME280;75527;48.526;9.158;2024-02-26T01:41:08;95355.88;;;6.66;54.74
85163;BME280;75527;48.526;9.158;2024-02-26T01:43:33;95368.88;;;6.76;53.31
85163;BME280;75527;48.526;9.158;2024-02-26T01:45:58;95336.91;;;6.50;54.18
85163;BME280;75527;48.526;9.158;2024-02-26T01:48:24;95361.00;;;6.76;54.56
85163;BME280;75527;48.526;9.158;2024-02-26T01:50:49;95349.06;;;6.65;55.03
85163;BME280;75527;48.526;9.158;2024-02-26T01:53:16;95384.16;;;6.74;55.84
85163;BME280;75527;48.526;9.158;2024-02-26T01:55:42;95371.94;;;6.64;53.86
85163;BME280;75527;48.526;9.158;2024-02-26T01:58:08;95365.41;;;6.62;56.91
85163;BME280;75527;48.526;9.158;2024-02-26T02:00:34;95369.97;;;6.51;57.24
85163;BME280;75527;48.526;9.158;2024-02-26T02:03:00;95389.66;;;6.53;56.81
85163;BME280;75527;48.526;9.158;2024-02-26T02:05:26;95383.75;;;6.43;57.55
85163;BME280;75527;48.526;9.158;2024-02-26T02:07:51;95400.06;;;6.40;58.46
85163;BME280;75527;48.526;9.158;2024-02-26T02:10:18;95398.50;;;6.39;55.81
85163;BME280;75527;48.526;9.158;2024-02-26T02:12:47;95405.88;;;6.37;57.63
85163;BME280;75527;48.526;9.158;2024-02-26T02:15:13;95396.16;;;6.13;57.68
85163;BME280;75527;48.526;9.158;2024-02-26T02:17:39;95412.84;;;6.22;59.77
85163;BME280;75527;48.526;9.158;2024-02-26T02:20:08;95404.03;;;6.13;59.84
85163;BME280;75527;48.526;9.158;2024-02-26T02:22:34;95386.47;;;6.09;58.86
85163;BME280;75527;48.526;9.158;2024-02-26T02:24:59;95401.06;;;6.20;60.08
85163;BME280;75527;48.526;9.158;2024-02-26T02:27:25;95372.53;;;6.13;59.01
85163;BME280;75527;48.526;9.158;2024-02-26T02:29:51;95376.84;;;6.28;58.04
85163;BME280;75527;48.526;9.158;2024-02-26T02:32:17;95377.59;;;6.29;59.90
85163;BME280;75527;48.526;9.158;2024-02-26T02:34:43;95380.06;;;6.20;60.17
85163;BME280;75527;48.526;9.158;2024-02-26T02:37:09;95377.00;;;6.13;59.63
85163;BME280;75527;48.526;9.158;2024-02-26T02:39:34;95381.47;;;6.12;59.49
85163;BME280;75527;48.526;9.158;2024-02-26T02:41:59;95369.91;;;6.13;58.85
85163;BME280;75527;48.526;9.158;2024-02-26T02:44:25;95378.91;;;6.07;60.20
85163;BME280;75527;48.526;9.158;2024-02-26T02:46:50;95373.97;;;6.24;56.50
85163;BME280;75527;48.526;9.158;2024-02-26T02:49:18;95352.84;;;6.16;56.36
85163;BME280;75527;48.526;9.158;2024-02-26T02:51:43;95348.63;;;6.15;58.20
85163;BME280;75527;48.526;9.158;2024-02-26T02:54:08;95369.91;;;6.13;59.19
85163;BME280;75527;48.526;9.158;2024-02-26T02:56:34;95398.66;;;6.23;58.30
85163;BME280;75527;48.526;9.158;2024-02-26T02:58:59;95399.34;;;6.10;61.34
85163;BME280;75527;48.526;9.158;2024-02-26T03:01:24;95391.56;;;6.00;62.23
85163;BME280;75527;48.526;9.158;2024-02-26T03:03:50;95383.47;;;5.96;61.10
85163;BME280;75527;48.526;9.158;2024-02-26T03:06:16;95363.75;;;5.99;58.22
85163;BME280;75527;48.526;9.158;2024-02-26T03:08:41;95357.53;;;5.95;60.02
85163;BME280;75527;48.526;9.158;2024-02-26T03:11:07;95362.09;;;6.08;60.96
85163;BME280;75527;48.526;9.158;2024-02-26T03:13:32;95359.75;;;6.07;62.47
85163;BME280;75527;48.526;9.158;2024-02-26T03:15:57;95360.53;;;6.07;60.72
85163;BME280;75527;48.526;9.158;2024-02-26T03:18:23;95353.38;;;6.13;60.40
85163;BME280;75527;48.526;9.158;2024-02-26T03:20:49;95365.22;;;6.10;59.34
85163;BME280;75527;48.526;9.158;2024-02-26T03:23:14;95335.41;;;6.01;59.23
85163;BME280;75527;48.526;9.158;2024-02-26T03:25:45;95341.56;;;6.15;60.03
85163;BME280;75527;48.526;9.158;2024-02-26T03:28:13;95332.34;;;6.18;60.89
85163;BME280;75527;48.526;9.158;2024-02-26T03:30:38;95323.25;;;6.10;59.16
85163;BME280;75527;48.526;9.158;2024-02-26T03:33:04;95330.50;;;6.18;57.84
85163;BME280;75527;48.526;9.158;2024-02-26T03:35:29;95335.84;;;6.08;60.60
85163;BME280;75527;48.526;9.158;2024-02-26T03:37:54;95351.47;;;6.18;61.74
85163;BME280;75527;48.526;9.158;2024-02-26T03:40:20;95339.78;;;6.11;60.80
85163;BME280;75527;48.526;9.158;2024-02-26T03:42:45;95367.75;;;6.20;60.69
85163;BME280;75527;48.526;9.158;2024-02-26T03:45:11;95353.72;;;6.06;62.55
85163;BME280;75527;48.526;9.158;2024-02-26T03:47:38;95355.34;;;6.02;62.35
85163;BME280;75527;48.526;9.158;2024-02-26T03:50:05;95350.03;;;6.07;62.64
85163;BME280;75527;48.526;9.158;2024-02-26T03:52:31;95323.84;;;6.02;60.48
85163;BME280;75527;48.526;9.158;2024-02-26T03:54:57;95339.00;;;6.10;60.39
85163;BME280;75527;48.526;9.158;2024-02-26T03:57:22;95357.38;;;6.10;58.99
85163;BME280;75527;48.526;9.158;2024-02-26T03:59:47;95358.25;;;6.00;60.09
85163;BME280;75527;48.526;9.158;2024-02-26T04:02:12;95354.91;;;5.95;60.79
85163;BME280;75527;48.526;9.158;2024-02-26T04:04:38;95330.34;;;5.81;61.45
85163;BME280;75527;48.526;9.158;2024-02-26T04:07:03;95345.72;;;5.92;61.69
85163;BME280;75527;48.526;9.158;2024-02-26T04:09:31;95336.56;;;5.90;62.09
85163;BME280;75527;48.526;9.158;2024-02-26T04:11:56;95346.53;;;5.88;63.38
85163;BME280;75527;48.526;9.158;2024-02-26T04:14:22;95347.09;;;5.85;62.27
85163;BME280;75527;48.526;9.158;2024-02-26T04:16:47;95370.06;;;5.98;63.34
85163;BME280;75527;48.526;9.158;2024-02-26T04:19:16;95365.88;;;5.97;64.11
85163;BME280;75527;48.526;9.158;2024-02-26T04:21:42;95381.13;;;5.95;64.33
85163;BME280;75527;48.526;9.158;2024-02-26T04:24:07;95377.28;;;5.82;65.64
85163;BME280;75527;48.526;9.158;2024-02-26T04:26:32;95397.44;;;5.87;65.46
85163;BME280;75527;48.526;9.158;2024-02-26T04:28:58;95376.56;;;5.77;64.44
85163;BME280;75527;48.526;9.158;2024-02-26T04:31:23;95376.69;;;5.90;64.20
85163;BME280;75527;48.526;9.158;2024-02-26T04:33:48;95362.84;;;5.85;64.36
85163;BME280;75527;48.526;9.158;2024-02-26T04:36:14;95371.22;;;5.87;64.67
85163;BME280;75527;48.526;9.158;2024-02-26T04:38:45;95366.19;;;5.95;63.95
85163;BME280;75527;48.526;9.158;2024-02-26T04:41:10;95355.19;;;5.88;65.38
85163;BME280;75527;48.526;9.158;2024-02-26T04:43:36;95351.28;;;5.86;64.52
85163;BME280;75527;48.526;9.158;2024-02-26T04:46:09;95348.66;;;5.86;63.99
85163;BME280;75527;48.526;9.158;2024-02-26T04:48:35;95330.34;;;5.81;63.90
85163;BME280;75527;48.526;9.158;2024-02-26T04:51:02;95336.16;;;5.78;64.11
85163;BME280;75527;48.526;9.158;2024-02-26T04:53:27;95320.75;;;5.71;63.57
85163;BME280;75527;48.526;9.158;2024-02-26T04:55:52;95333.81;;;5.76;62.83
85163;BME280;75527;48.526;9.158;2024-02-26T04:58:18;95353.91;;;5.86;63.04
85163;BME280;75527;48.526;9.158;2024-02-26T05:00:43;95349.53;;;5.76;62.86
85163;BME280;75527;48.526;9.158;2024-02-26T05:03:09;95355.03;;;5.80;62.75
85163;BME280;75527;48.526;9.158;2024-02-26T05:05:42;95361.53;;;5.82;63.71
85163;BME280;75527;48.526;9.158;2024-02-26T05:08:07;95363.38;;;5.82;64.98
85163;BME280;75527;48.526;9.158;2024-02-26T05:10:33;95351.19;;;5.67;65.10
85163;BME280;75527;48.526;9.158;2024-02-26T05:12:59;95362.94;;;5.74;65.03
85163;BME280;75527;48.526;9.158;2024-02-26T05:15:24;95381.50;;;5.78;66.10
85163;BME280;75527;48.526;9.158;2024-02-26T05:17:49;95394.63;;;5.78;64.80
85163;BME280;75527;48.526;9.158;2024-02-26T05:20:14;95396.06;;;5.65;65.24
85163;BME280;75527;48.526;9.158;2024-02-26T05:22:40;95399.91;;;5.73;66.09
85163;BME280;75527;48.526;9.158;2024-02-26T05:25:05;95398.88;;;5.74;65.44
85163;BME280;75527;48.526;9.158;2024-02-26T05:27:30;95378.78;;;5.64;66.21
85163;BME280;75527;48.526;9.158;2024-02-26T05:29:56;95387.81;;;5.77;66.53
85163;BME280;75527;48.526;9.158;2024-02-26T05:32:21;95364.56;;;5.70;67.18
85163;BME280;75527;48.526;9.158;2024-02-26T05:34:47;95376.56;;;5.77;67.29
85163;BME280;75527;48.526;9.158;2024-02-26T05:37:12;95357.75;;;5.69;67.03
85163;BME280;75527;48.526;9.158;2024-02-26T05:39:37;95385.44;;;5.81;63.54
85163;BME280;75527;48.526;9.158;2024-02-26T05:42:04;95378.88;;;5.78;65.82
85163;BME280;75527;48.526;9.158;2024-02-26T05:44:29;95370.91;;;5.64;65.48
85163;BME280;75527;48.526;9.158;2024-02-26T05:46:55;95393.69;;;5.69;66.54
85163;BME280;75527;48.526;9.158;2024-02-26T05:49:20;95384.50;;;5.66;66.79
85163;BME280;75527;48.526;9.158;2024-02-26T05:51:46;95394.75;;;5.63;66.87
85163;BME280;75527;48.526;9.158;2024-02-26T05:54:12;95338.31;;;5.12;68.06
85163;BME280;75527;48.526;9.158;2024-02-26T05:56:37;95374.81;;;5.38;66.63
85163;BME280;75527;48.526;9.158;2024-02-26T05:59:02;95390.22;;;5.44;66.63
85163;BME280;75527;48.526;9.158;2024-02-26T06:01:27;95385.50;;;5.41;65.19
85163;BME280;75527;48.526;9.158;2024-02-26T06:03:53;95410.31;;;5.54;64.24
85163;BME280;75527;48.526;9.158;2024-02-26T06:06:18;95393.28;;;5.52;65.88
85163;BME280;75527;48.526;9.158;2024-02-26T06:08:43;95391.31;;;5.38;65.19
85163;BME280;75527;48.526;9.158;2024-02-26T06:11:09;95409.84;;;5.47;66.13
85163;BME280;75527;48.526;9.158;2024-02-26T06:13:35;95397.53;;;5.42;67.21
85163;BME280;75527;48.526;9.158;2024-02-26T06:16:01;95403.31;;;5.44;67.09
85163;BME280;75527;48.526;9.158;2024-02-26T06:18:27;95407.25;;;5.42;67.36
85163;BME280;75527;48.526;9.158;2024-02-26T06:20:52;95405.47;;;5.32;66.77
85163;BME280;75527;48.526;9.158;2024-02-26T06:23:18;95427.22;;;5.38;67.71
85163;BME280;75527;48.526;9.158;2024-02-26T06:25:43;95428.28;;;5.32;68.62
85163;BME280;75527;48.526;9.158;2024-02-26T06:28:09;95439.31;;;5.34;67.79
85163;BME280;75527;48.526;9.158;2024-02-26T06:30:34;95439.06;;;5.30;69.26
85163;BME280;75527;48.526;9.158;2024-02-26T06:33:00;95448.22;;;5.33;67.42
85163;BME280;75527;48.526;9.158;2024-02-26T06:35:26;95447.44;;;5.27;68.24
85163;BME280;75527;48.526;9.158;2024-02-26T06:37:52;95445.69;;;5.17;69.03
85163;BME280;75527;48.526;9.158;2024-02-26T06:40:19;95460.81;;;5.26;68.92
85163;BME280;75527;48.526;9.158;2024-02-26T06:42:44;95453.06;;;5.10;69.33
85163;BME280;75527;48.526;9.158;2024-02-26T06:45:09;95475.00;;;5.25;69.13
85163;BME280;75527;48.526;9.158;2024-02-26T06:47:35;95484.41;;;5.26;67.87
85163;BME280;75527;48.526;9.158;2024-02-26T06:50:00;95479.22;;;5.15;69.60
85163;BME280;75527;48.526;9.158;2024-02-26T06:52:26;95480.28;;;5.14;69.30
85163;BME280;75527;48.526;9.158;2024-02-26T06:54:52;95465.09;;;5.11;69.40
85163;BME280;75527;48.526;9.158;2024-02-26T06:57:19;95465.75;;;5.32;67.69
85163;BME280;75527;48.526;9.158;2024-02-26T06:59:44;95485.88;;;5.42;68.77
85163;BME280;75527;48.526;9.158;2024-02-26T07:02:12;95483.47;;;5.51;67.64
85163;BME280;75527;48.526;9.158;2024-02-26T07:04:37;95489.72;;;5.60;68.01
85163;BME280;75527;48.526;9.158;2024-02-26T07:07:03;95478.66;;;5.63;68.73
85163;BME280;75527;48.526;9.158;2024-02-26T07:09:28;95487.56;;;5.67;68.45
85163;BME280;75527;48.526;9.158;2024-02-26T07:11:53;95488.56;;;5.71;66.36
85163;BME280;75527;48.526;9.158;2024-02-26T07:14:19;95496.41;;;5.76;66.00
85163;BME280;75527;48.526;9.158;2024-02-26T07:16:44;95493.78;;;5.76;66.00
85163;BME280;75527;48.526;9.158;2024-02-26T07:19:09;95483.00;;;5.78;67.47
85163;BME280;75527;48.526;9.158;2024-02-26T07:21:34;95507.31;;;5.93;67.89
85163;BME280;75527;48.526;9.158;2024-02-26T07:24:00;95501.81;;;5.95;68.16
85163;BME280;75527;48.526;9.158;2024-02-26T07:26:25;95506.28;;;5.94;67.60
85163;BME280;75527;48.526;9.158;2024-02-26T07:28:51;95500.41;;;6.03;67.42
85163;BME280;75527;48.526;9.158;2024-02-26T07:31:19;95499.22;;;6.19;65.94
85163;BME280;75527;48.526;9.158;2024-02-26T07:33:45;95515.78;;;6.14;67.03
85163;BME280;75527;48.526;9.158;2024-02-26T07:36:10;95519.72;;;6.17;63.93
85163;BME280;75527;48.526;9.158;2024-02-26T07:38:36;95507.78;;;6.00;65.99
85163;BME280;75527;48.526;9.158;2024-02-26T07:41:02;95517.44;;;6.10;66.84
85163;BME280;75527;48.526;9.158;2024-02-26T07:43:27;95531.09;;;6.07;67.06
85163;BME280;75527;48.526;9.158;2024-02-26T07:45:52;95522.72;;;6.05;66.91
85163;BME280;75527;48.526;9.158;2024-02-26T07:48:18;95524.22;;;6.11;66.51
85163;BME280;75527;48.526;9.158;2024-02-26T07:50:43;95514.44;;;6.22;67.35
85163;BME280;75527;48.526;9.158;2024-02-26T07:53:08;95520.91;;;6.30;66.79
85163;BME280;75527;48.526;9.158;2024-02-26T07:55:34;95507.03;;;6.24;64.89
85163;BME280;75527;48.526;9.158;2024-02-26T07:57:59;95540.50;;;6.42;65.69
85163;BME280;75527;48.526;9.158;2024-02-26T08:00:25;95524.84;;;6.56;67.53
85163;BME280;75527;48.526;9.158;2024-02-26T08:02:50;95537.16;;;6.61;67.19
85163;BME280;75527;48.526;9.158;2024-02-26T08:05:15;95529.00;;;6.62;67.20
85163;BME280;75527;48.526;9.158;2024-02-26T08:07:41;95521.69;;;6.59;67.19
85163;BME280;75527;48.526;9.158;2024-02-26T08:10:07;95518.03;;;6.55;66.03
85163;BME280;75527;48.526;9.158;2024-02-26T08:12:32;95510.44;;;6.53;66.27
85163;BME280;75527;48.526;9.158;2024-02-26T08:14:58;95504.84;;;6.60;66.70
85163;BME280;75527;48.526;9.158;2024-02-26T08:17:23;95509.44;;;6.73;65.77
85163;BME280;75527;48.526;9.158;2024-02-26T08:19:49;95496.31;;;6.73;65.67
85163;BME280;75527;48.526;9.158;2024-02-26T08:22:14;95499.03;;;6.87;65.59
85163;BME280;75527;48.526;9.158;2024-02-26T08:24:44;95495.63;;;6.87;65.23
85163;BME280;75527;48.526;9.158;2024-02-26T08:27:09;95500.69;;;7.02;65.74
85163;BME280;75527;48.526;9.158;2024-02-26T08:29:34;95505.34;;;7.10;65.57
85163;BME280;75527;48.526;9.158;2024-02-26T08:32:00;95486.88;;;7.15;64.78
85163;BME280;75527;48.526;9.158;2024-02-26T08:34:26;95485.66;;;7.26;64.30
85163;BME280;75527;48.526;9.158;2024-02-26T08:36:51;95477.50;;;7.28;65.06
85163;BME280;75527;48.526;9.158;2024-02-26T08:39:16;95482.06;;;7.41;65.01
85163;BME280;75527;48.526;9.158;2024-02-26T08:41:45;95476.56;;;7.38;66.02
85163;BME280;75527;48.526;9.158;2024-02-26T08:44:11;95489.88;;;7.46;64.47
85163;BME280;75527;48.526;9.158;2024-02-26T08:46:36;95491.22;;;7.44;65.76
85163;BME280;75527;48.526;9.158;2024-02-26T08:49:02;95489.03;;;7.51;65.63
85163;BME280;75527;48.526;9.158;2024-02-26T08:51:27;95478.41;;;7.37;66.21
85163;BME280;75527;48.526;9.158;2024-02-26T08:53:52;95490.09;;;7.31;66.10
85163;BME280;75527;48.526;9.158;2024-02-26T08:56:19;95480.97;;;7.23;66.70
85163;BME280;75527;48.526;9.158;2024-02-26T08:58:44;95455.53;;;7.00;67.11
85163;BME280;75527;48.526;9.158;2024-02-26T09:01:11;95466.28;;;7.03;68.43
85163;BME280;75527;48.526;9.158;2024-02-26T09:03:36;95479.78;;;7.16;67.69
85163;BME280;75527;48.526;9.158;2024-02-26T09:06:02;95487.16;;;7.14;67.69
85163;BME280;75527;48.526;9.158;2024-02-26T09:08:27;95483.59;;;7.23;65.98
85163;BME280;75527;48.526;9.158;2024-02-26T09:10:53;95482.81;;;7.23;65.83
85163;BME280;75527;48.526;9.158;2024-02-26T09:13:18;95497.06;;;7.41;66.49
85163;BME280;75527;48.526;9.158;2024-02-26T09:15:43;95498.38;;;7.38;66.77
85163;BME280;75527;48.526;9.158;2024-02-26T09:18:09;95493.00;;;7.29;66.54
85163;BME280;75527;48.526;9.158;2024-02-26T09:20:35;95461.72;;;7.09;66.26
85163;BME280;75527;48.526;9.158;2024-02-26T09:23:00;95499.16;;;7.39;64.46
85163;BME280;75527;48.526;9.158;2024-02-26T09:25:26;95494.28;;;7.51;63.33
85163;BME280;75527;48.526;9.158;2024-02-26T09:27:51;95486.72;;;7.63;62.40
85163;BME280;75527;48.526;9.158;2024-02-26T09:30:17;95483.03;;;7.64;62.67
85163;BME280;75527;48.526;9.158;2024-02-26T09:32:46;95471.09;;;7.53;61.30
85163;BME280;75527;48.526;9.158;2024-02-26T09:35:12;95491.69;;;7.65;61.69
85163;BME280;75527;48.526;9.158;2024-02-26T09:37:38;95503.50;;;7.86;60.49
85163;BME280;75527;48.526;9.158;2024-02-26T09:40:04;95495.72;;;7.95;60.16
85163;BME280;75527;48.526;9.158;2024-02-26T09:42:31;95494.38;;;8.11;59.41
85163;BME280;75527;48.526;9.158;2024-02-26T09:45:00;95513.19;;;8.37;58.29
85163;BME280;75527;48.526;9.158;2024-02-26T09:47:30;95519.00;;;8.53;58.34
85163;BME280;75527;48.526;9.158;2024-02-26T09:49:56;95492.94;;;8.51;56.31
85163;BME280;75527;48.526;9.158;2024-02-26T09:52:23;95490.13;;;8.61;55.28
85163;BME280;75527;48.526;9.158;2024-02-26T09:54:49;95516.75;;;8.87;54.57
85163;BME280;75527;48.526;9.158;2024-02-26T09:57:15;95528.47;;;9.09;54.12
85163;BME280;75527;48.526;9.158;2024-02-26T09:59:43;95526.28;;;9.38;55.56
85163;BME280;75527;48.526;9.158;2024-02-26T10:02:11;95527.00;;;9.30;53.47
85163;BME280;75527;48.526;9.158;2024-02-26T10:04:39;95526.28;;;9.38;53.73
85163;BME280;75527;48.526;9.158;2024-02-26T10:07:07;95543.19;;;9.37;53.67
85163;BME280;75527;48.526;9.158;2024-02-26T10:09:35;95530.59;;;9.34;52.83
85163;BME280;75527;48.526;9.158;2024-02-26T10:12:00;95543.00;;;9.34;52.22
85163;BME280;75527;48.526;9.158;2024-02-26T10:14:26;95544.75;;;9.25;53.21
85163;BME280;75527;48.526;9.158;2024-02-26T10:16:51;95515.38;;;9.04;53.76
85163;BME280;75527;48.526;9.158;2024-02-26T10:19:29;95540.09;;;9.22;54.48
85163;BME280;75527;48.526;9.158;2024-02-26T10:22:00;95525.16;;;9.17;55.43
85163;BME280;75527;48.526;9.158;2024-02-26T10:24:26;95539.59;;;9.33;54.88
85163;BME280;75527;48.526;9.158;2024-02-26T10:26:52;95527.06;;;9.39;55.28
85163;BME280;75527;48.526;9.158;2024-02-26T10:29:18;95512.53;;;9.42;55.36
85163;BME280;75527;48.526;9.158;2024-02-26T10:31:44;95511.69;;;9.55;53.73
85163;BME280;75527;48.526;9.158;2024-02-26T10:34:10;95509.09;;;9.41;54.01
85163;BME280;75527;48.526;9.158;2024-02-26T10:36:36;95544.97;;;9.42;54.12
85163;BME280;75527;48.526;9.158;2024-02-26T10:39:05;95544.34;;;9.59;54.16
85163;BME280;75527;48.526;9.158;2024-02-26T10:41:32;95541.13;;;9.62;54.46
85163;BME280;75527;48.526;9.158;2024-02-26T10:43:58;95537.84;;;9.65;53.93
85163;BME280;75527;48.526;9.158;2024-02-26T10:46:25;95541.47;;;9.69;54.52
85163;BME280;75527;48.526;9.158;2024-02-26T10:48:51;95536.31;;;9.64;53.74
85163;BME280;75527;48.526;9.158;2024-02-26T10:51:21;95528.75;;;9.71;55.00
85163;BME280;75527;48.526;9.158;2024-02-26T10:53:51;95547.19;;;9.85;54.51
85163;BME280;75527;48.526;9.158;2024-02-26T10:56:24;95542.69;;;9.85;53.80
85163;BME280;75527;48.526;9.158;2024-02-26T10:58:52;95549.72;;;9.90;54.70
85163;BME280;75527;48.526;9.158;2024-02-26T11:01:18;95542.00;;;9.94;54.95
85163;BME280;75527;48.526;9.158;2024-02-26T11:03:47;95543.53;;;9.95;54.15
85163;BME280;75527;48.526;9.158;2024-02-26T11:06:13;95546.31;;;9.89;54.46
85163;BME280;75527;48.526;9.158;2024-02-26T11:08:39;95550.56;;;9.99;55.07
85163;BME280;75527;48.526;9.158;2024-02-26T11:11:05;95549.28;;;9.97;54.51
85163;BME280;75527;48.526;9.158;2024-02-26T11:13:31;95531.78;;;10.01;54.20
85163;BME280;75527;48.526;9.158;2024-02-26T11:15:58;95537.75;;;10.29;53.31
85163;BME280;75527;48.526;9.158;2024-02-26T11:18:26;95548.13;;;10.25;52.97
85163;BME280;75527;48.526;9.158;2024-02-26T11:20:54;95530.13;;;10.27;52.96
85163;BME280;75527;48.526;9.158;2024-02-26T11:23:22;95549.78;;;10.43;53.14
85163;BME280;75527;48.526;9.158;2024-02-26T11:25:51;95561.25;;;10.61;52.56
85163;BME280;75527;48.526;9.158;2024-02-26T11:28:19;95563.78;;;10.66;51.85
85163;BME280;75527;48.526;9.158;2024-02-26T11:30:46;95571.91;;;10.79;51.88
85163;BME280;75527;48.526;9.158;2024-02-26T11:33:13;95577.63;;;10.72;51.97
85163;BME280;75527;48.526;9.158;2024-02-26T11:35:39;95574.41;;;10.75;51.85
85163;BME280;75527;48.526;9.158;2024-02-26T11:38:05;95566.16;;;10.85;52.22
85163;BME280;75527;48.526;9.158;2024-02-26T11:40:33;95561.16;;;11.06;51.41
85163;BME280;75527;48.526;9.158;2024-02-26T11:42:59;95553.09;;;11.11;50.97
85163;BME280;75527;48.526;9.158;2024-02-26T11:48:22;95555.03;;;11.45;48.64
85163;BME280;75527;48.526;9.158;2024-02-26T11:50:54;95561.13;;;11.55;48.24
85163;BME280;75527;48.526;9.158;2024-02-26T11:53:31;95573.88;;;11.61;49.26
85163;BME280;75527;48.526;9.158;2024-02-26T11:58:40;95579.88;;;12.36;46.30
85163;BME280;75527;48.526;9.158;2024-02-26T12:01:06;95567.34;;;12.63;45.85
85163;BME280;75527;48.526;9.158;2024-02-26T12:03:31;95573.78;;;13.00;44.49
85163;BME280;75527;48.526;9.158;2024-02-26T12:05:56;95556.41;;;12.73;44.98
85163;BME280;75527;48.526;9.158;2024-02-26T12:08:22;95578.22;;;12.87;45.79
85163;BME280;75527;48.526;9.158;2024-02-26T12:10:48;95556.41;;;12.73;45.61
85163;BME280;75527;48.526;9.158;2024-02-26T12:13:17;95561.72;;;12.73;45.78
85163;BME280;75527;48.526;9.158;2024-02-26T12:15:55;95580.56;;;12.80;45.69
85163;BME280;75527;48.526;9.158;2024-02-26T12:18:22;95585.91;;;12.63;46.35
85163;BME280;75527;48.526;9.158;2024-02-26T12:20:58;95585.91;;;12.54;46.70
85163;BME280;75527;48.526;9.158;2024-02-26T12:23:24;95584.22;;;12.49;46.81
85163;BME280;75527;48.526;9.158;2024-02-26T12:25:49;95579.38;;;12.51;47.34
85163;BME280;75527;48.526;9.158;2024-02-26T12:28:15;95583.09;;;12.59;47.44
85163;BME280;75527;48.526;9.158;2024-02-26T12:30:40;95577.97;;;12.54;46.83
85163;BME280;75527;48.526;9.158;2024-02-26T12:33:06;95574.19;;;12.64;46.61
85163;BME280;75527;48.526;9.158;2024-02-26T12:35:34;95568.91;;;12.64;47.17
85163;BME280;75527;48.526;9.158;2024-02-26T12:38:00;95572.41;;;12.94;46.26
85163;BME280;75527;48.526;9.158;2024-02-26T12:40:26;95574.84;;;13.08;46.45
85163;BME280;75527;48.526;9.158;2024-02-26T12:42:53;95577.13;;;13.18;45.72
85163;BME280;75527;48.526;9.158;2024-02-26T12:45:20;95572.19;;;13.08;46.93
85163;BME280;75527;48.526;9.158;2024-02-26T12:47:46;95575.31;;;13.10;46.50
85163;BME280;75527;48.526;9.158;2024-02-26T12:50:11;95581.59;;;12.96;47.22
85163;BME280;75527;48.526;9.158;2024-02-26T12:52:45;95576.94;;;12.85;47.04
85163;BME280;75527;48.526;9.158;2024-02-26T12:55:17;95579.28;;;12.86;48.14
85163;BME280;75527;48.526;9.158;2024-02-26T12:57:43;95570.44;;;12.73;47.39
85163;BME280;75527;48.526;9.158;2024-02-26T13:00:12;95583.53;;;12.78;47.58
85163;BME280;75527;48.526;9.158;2024-02-26T13:02:40;95579.66;;;12.67;48.21
85163;BME280;75527;48.526;9.158;2024-02-26T13:05:07;95570.63;;;12.60;48.51
85163;BME280;75527;48.526;9.158;2024-02-26T13:07:34;95585.59;;;12.64;48.26
85163;BME280;75527;48.526;9.158;2024-02-26T13:10:00;95580.88;;;12.78;47.82